Time;durP1;ratioP1;P1;durP2;ratioP2;P2;SDS_P1;SDS_P2;PMS_P1;PMS_P2;Temp;Humidity;BMP_temperature;BMP_pressure;BME280_temperature;BME280_humidity;BME280_pressure;Samples;Min_cycle;Max_cycle;Signal;HPM_P1;HPM_P2
2022/02/18 00:55:22;;;;;;;28.45;3.83;;;;;;;;;;6213294;22;20194;-90
2022/02/18 00:58:27;;;;;;;21.45;3.33;;;;;;;;;;6228050;23;20258;-90
2022/02/18 01:01:34;;;;;;;25.13;4.00;;;;;;;;;;6228932;23;20166;-90
2022/02/18 01:04:40;;;;;;;25.58;3.55;;;;;;;;;;6216462;23;20194;-89
2022/02/18 01:07:49;;;;;;;16.35;2.95;;;;;;;;;;6237011;22;20203;-89
2022/02/18 01:10:56;;;;;;;21.73;4.65;;;;;;;;;;6238221;23;20178;-91
2022/02/18 01:14:01;;;;;;;25.83;3.50;;;;;;;;;;6235962;23;20179;-89
2022/02/18 01:17:06;;;;;;;23.02;2.70;;;;;;;;;;6236594;23;20160;-88
2022/02/18 01:20:14;;;;;;;20.05;3.33;;;;;;;;;;6234826;23;20212;-89
2022/02/18 01:23:19;;;;;;;23.20;3.90;;;;;;;;;;6236476;23;20276;-89
2022/02/18 01:26:31;;;;;;;23.48;3.50;;;;;;;;;;6220417;22;20151;-91
2022/02/18 01:29:39;;;;;;;30.25;3.78;;;;;;;;;;6219909;23;20167;-90
2022/02/18 01:32:48;;;;;;;30.00;3.92;;;;;;;;;;6219071;22;20175;-91
2022/02/18 01:36:19;;;;;;;24.77;3.42;;;;;;;;;;6217162;23;20170;-89
2022/02/18 01:39:26;;;;;;;22.98;3.85;;;;;;;;;;6235237;22;20172;-88
2022/02/18 01:42:32;;;;;;;23.15;3.75;;;;;;;;;;6217065;23;20187;-90
2022/02/18 01:45:38;;;;;;;20.35;3.05;;;;;;;;;;6235119;22;20623;-89
2022/02/18 01:48:43;;;;;;;23.90;3.33;;;;;;;;;;6218405;23;20183;-90
2022/02/18 01:51:48;;;;;;;17.30;3.63;;;;;;;;;;6218597;23;20239;-90
2022/02/18 01:54:54;;;;;;;20.65;3.08;;;;;;;;;;6235750;23;20151;-90
2022/02/18 01:58:02;;;;;;;22.35;3.22;;;;;;;;;;6235629;23;20162;-89
2022/02/18 02:01:09;;;;;;;24.90;3.15;;;;;;;;;;6234743;23;20236;-90
2022/02/18 02:04:14;;;;;;;19.15;2.83;;;;;;;;;;6218702;23;20191;-91
2022/02/18 02:07:20;;;;;;;15.38;2.83;;;;;;;;;;6218023;23;20167;-90
2022/02/18 02:10:27;;;;;;;24.85;3.30;;;;;;;;;;6217037;22;20214;-90
2022/02/18 02:40:02;;;;;;;30.20;3.53;;;;;;;;;;6218057;22;20190;-90
2022/02/18 02:43:16;;;;;;;26.08;3.58;;;;;;;;;;6248226;22;20190;-89
2022/02/18 02:46:24;;;;;;;22.60;3.05;;;;;;;;;;6247786;23;20231;-90
2022/02/18 02:49:31;;;;;;;25.58;3.38;;;;;;;;;;6248325;23;20175;-90
2022/02/18 02:52:36;;;;;;;28.93;4.67;;;;;;;;;;6247474;22;20162;-89
2022/02/18 02:55:48;;;;;;;20.67;3.85;;;;;;;;;;6248128;23;20170;-91
2022/02/18 02:58:53;;;;;;;25.05;3.83;;;;;;;;;;6241108;23;20166;-90
2022/02/18 03:02:07;;;;;;;28.48;4.05;;;;;;;;;;6239929;23;20175;-89
2022/02/18 03:05:13;;;;;;;31.38;4.88;;;;;;;;;;6239159;22;20209;-90
2022/02/18 03:08:19;;;;;;;25.08;3.38;;;;;;;;;;6238019;23;20162;-89
2022/02/18 03:11:26;;;;;;;24.27;3.60;;;;;;;;;;6239771;23;20178;-89
2022/02/18 03:15:01;;;;;;;25.08;3.63;;;;;;;;;;6258826;23;20503;-89
2022/02/18 03:18:10;;;;;;;22.03;4.13;;;;;;;;;;6241233;23;20167;-90
2022/02/18 03:21:19;;;;;;;24.60;3.13;;;;;;;;;;6241265;23;20170;-89
2022/02/18 03:24:24;;;;;;;23.33;3.28;;;;;;;;;;6241588;23;20198;-90
2022/02/18 03:27:33;;;;;;;28.97;3.60;;;;;;;;;;6240973;23;20221;-90
2022/02/18 03:30:39;;;;;;;25.03;3.70;;;;;;;;;;6241204;23;20241;-91
2022/02/18 03:33:44;;;;;;;24.30;3.37;;;;;;;;;;6241112;22;20286;-91
2022/02/18 03:36:53;;;;;;;29.57;3.73;;;;;;;;;;6240284;23;20171;-90
2022/02/18 03:40:02;;;;;;;20.43;3.57;;;;;;;;;;6239883;23;20241;-90
2022/02/18 03:43:10;;;;;;;29.67;3.57;;;;;;;;;;6240360;23;20158;-89
2022/02/18 03:46:32;;;;;;;26.30;4.32;;;;;;;;;;6239628;23;20166;-91
2022/02/18 03:49:37;;;;;;;20.42;3.35;;;;;;;;;;6240401;23;20167;-90
2022/02/18 03:52:45;;;;;;;18.00;3.00;;;;;;;;;;6238947;23;20477;-90
2022/02/18 03:55:51;;;;;;;19.97;3.57;;;;;;;;;;6239505;23;20174;-89
2022/02/18 03:58:58;;;;;;;25.10;3.63;;;;;;;;;;6238144;23;20182;-89
2022/02/18 04:02:03;;;;;;;27.77;3.23;;;;;;;;;;6238424;23;20154;-89
2022/02/18 04:05:08;;;;;;;26.37;3.63;;;;;;;;;;6239986;22;20186;-89
2022/02/18 04:08:23;;;;;;;20.67;3.93;;;;;;;;;;6239136;22;20718;-91
2022/02/18 04:11:28;;;;;;;19.67;3.40;;;;;;;;;;6241059;23;20221;-91
2022/02/18 04:14:35;;;;;;;27.63;3.80;;;;;;;;;;6239359;23;20166;-91
2022/02/18 04:17:48;;;;;;;23.63;3.03;;;;;;;;;;6238680;23;20167;-91
2022/02/18 04:21:04;;;;;;;23.02;3.85;;;;;;;;;;6242046;23;20661;-92
2022/02/18 04:24:41;;;;;;;22.43;3.63;;;;;;;;;;6260379;23;20564;-91
2022/02/18 04:27:53;;;;;;;31.17;3.43;;;;;;;;;;6241534;23;20485;-90
2022/02/18 04:30:59;;;;;;;19.37;3.07;;;;;;;;;;6241109;23;20221;-89
2022/02/18 04:34:04;;;;;;;25.13;3.73;;;;;;;;;;6241383;22;20249;-90
2022/02/18 04:37:27;;;;;;;24.03;3.67;;;;;;;;;;6240179;23;20173;-90
2022/02/18 04:40:32;;;;;;;22.57;3.57;;;;;;;;;;6240047;23;20189;-91
2022/02/18 04:43:37;;;;;;;19.90;3.65;;;;;;;;;;6239683;23;20173;-90
2022/02/18 04:46:43;;;;;;;25.73;3.80;;;;;;;;;;6241317;23;20158;-90
2022/02/18 04:49:48;;;;;;;25.57;3.50;;;;;;;;;;6240973;23;20252;-89
2022/02/18 04:52:54;;;;;;;20.97;3.60;;;;;;;;;;6242382;23;20509;-89
2022/02/18 04:55:59;;;;;;;17.40;3.13;;;;;;;;;;6241722;23;20170;-90
2022/02/18 04:59:04;;;;;;;20.23;3.50;;;;;;;;;;6240050;23;20571;-91
2022/02/18 05:02:16;;;;;;;19.70;4.10;;;;;;;;;;6238061;23;20257;-90
2022/02/18 05:05:22;;;;;;;28.08;3.15;;;;;;;;;;6242225;23;20650;-91
2022/02/18 05:08:27;;;;;;;23.10;4.20;;;;;;;;;;6240165;23;20166;-90
2022/02/18 05:11:32;;;;;;;30.03;3.70;;;;;;;;;;6243083;23;20195;-90
2022/02/18 05:14:37;;;;;;;27.83;4.10;;;;;;;;;;6243968;23;20261;-90
2022/02/18 05:17:48;;;;;;;28.43;4.00;;;;;;;;;;6243628;23;20215;-91
2022/02/18 05:20:52;;;;;;;18.77;3.57;;;;;;;;;;6243003;23;20167;-91
2022/02/18 05:23:57;;;;;;;25.40;3.75;;;;;;;;;;6240009;23;20190;-90
2022/02/18 05:27:02;;;;;;;26.25;3.28;;;;;;;;;;6240458;22;20163;-90
2022/02/18 05:30:09;;;;;;;26.67;3.80;;;;;;;;;;6242210;23;20633;-90
2022/02/18 05:33:15;;;;;;;30.90;4.13;;;;;;;;;;6241194;23;20167;-90
2022/02/18 05:36:20;;;;;;;26.85;3.70;;;;;;;;;;6240252;23;20174;-90
2022/02/18 05:39:25;;;;;;;26.73;3.63;;;;;;;;;;6240857;23;20178;-90
2022/02/18 05:42:30;;;;;;;38.17;4.13;;;;;;;;;;6238255;23;20174;-91
2022/02/18 05:45:36;;;;;;;21.20;3.50;;;;;;;;;;6237260;23;20191;-91
2022/02/18 05:48:42;;;;;;;21.65;3.10;;;;;;;;;;6240163;23;20162;-90
2022/02/18 05:51:48;;;;;;;19.77;3.47;;;;;;;;;;6238417;23;20167;-90
2022/02/18 05:54:53;;;;;;;26.45;3.95;;;;;;;;;;6240022;22;20166;-90
2022/02/18 05:57:57;;;;;;;26.77;3.33;;;;;;;;;;6238813;22;20167;-90
2022/02/18 06:01:02;;;;;;;22.73;3.33;;;;;;;;;;6239907;22;20175;-90
2022/02/18 06:04:09;;;;;;;26.83;3.67;;;;;;;;;;6239132;22;20290;-91
2022/02/18 06:07:16;;;;;;;23.98;3.72;;;;;;;;;;6244093;23;20225;-90
2022/02/18 06:10:22;;;;;;;21.77;4.20;;;;;;;;;;6239872;23;20174;-90
2022/02/18 06:13:28;;;;;;;18.23;3.10;;;;;;;;;;6242312;23;20230;-91
2022/02/18 06:16:33;;;;;;;24.80;4.03;;;;;;;;;;6244495;23;20308;-91
2022/02/18 06:19:39;;;;;;;32.93;3.50;;;;;;;;;;6241443;23;20162;-91
2022/02/18 06:22:45;;;;;;;23.15;3.03;;;;;;;;;;6239052;23;20167;-90
2022/02/18 06:25:49;;;;;;;29.95;3.60;;;;;;;;;;6238804;23;20288;-91
2022/02/18 06:28:54;;;;;;;29.73;3.63;;;;;;;;;;6238315;23;20157;-90
2022/02/18 06:31:59;;;;;;;26.55;3.42;;;;;;;;;;6238838;23;20174;-90
2022/02/18 06:35:06;;;;;;;22.35;3.83;;;;;;;;;;6238863;23;20251;-90
2022/02/18 06:38:11;;;;;;;25.08;3.47;;;;;;;;;;6243875;23;20173;-91
2022/02/18 06:41:19;;;;;;;17.05;3.30;;;;;;;;;;6241557;23;20363;-91
2022/02/18 06:44:24;;;;;;;20.95;3.65;;;;;;;;;;6244297;22;20190;-91
2022/02/18 06:47:29;;;;;;;27.55;3.92;;;;;;;;;;6243988;23;20178;-90
2022/02/18 06:50:36;;;;;;;22.60;3.72;;;;;;;;;;6239211;23;20213;-89
2022/02/18 06:53:42;;;;;;;20.33;3.22;;;;;;;;;;6238126;23;20170;-90
2022/02/18 06:56:46;;;;;;;20.00;3.13;;;;;;;;;;6237250;23;20166;-91
2022/02/18 06:59:51;;;;;;;24.67;4.07;;;;;;;;;;6237678;23;20178;-89
2022/02/18 07:02:56;;;;;;;22.65;3.88;;;;;;;;;;6238413;23;20171;-90
2022/02/18 07:06:04;;;;;;;27.73;4.37;;;;;;;;;;6238837;23;20194;-90
2022/02/18 07:09:11;;;;;;;22.67;3.20;;;;;;;;;;6239100;22;20194;-89
2022/02/18 07:12:16;;;;;;;23.02;3.35;;;;;;;;;;6241773;23;20175;-90
2022/02/18 07:15:21;;;;;;;16.98;2.85;;;;;;;;;;6237834;23;20166;-88
2022/02/18 07:18:27;;;;;;;17.65;3.25;;;;;;;;;;6240106;23;20173;-89
2022/02/18 07:21:33;;;;;;;13.23;3.42;;;;;;;;;;6258885;22;20241;-91
2022/02/18 07:24:40;;;;;;;24.17;3.95;;;;;;;;;;6238742;23;20189;-90
2022/02/18 07:27:45;;;;;;;23.20;3.63;;;;;;;;;;6239629;23;20235;-91
2022/02/18 07:30:50;;;;;;;24.70;3.80;;;;;;;;;;6239916;23;20157;-91
2022/02/18 07:33:56;;;;;;;24.55;3.40;;;;;;;;;;6241761;22;20166;-92
2022/02/18 07:37:03;;;;;;;20.42;3.78;;;;;;;;;;6241301;22;20187;-90
2022/02/18 07:40:09;;;;;;;17.63;3.00;;;;;;;;;;6242189;23;20499;-91
2022/02/18 07:43:15;;;;;;;15.23;3.22;;;;;;;;;;6243299;23;20166;-90
2022/02/18 07:46:20;;;;;;;17.20;2.85;;;;;;;;;;6241683;23;20198;-90
